Holyrood, Canada
Current Conditions -  °F | °C
As of 10:12 AM on Thursday 18 Dec 2014 (Local Time) from CYYT Reporting Station
Drizzle Drizzle  
Wind Chill: 24°   Ceiling: 100
Heat Index: 36°   Visibility: 0.25mi
Dew Point: 36°   Wind: 24mph
Humidity: 100%   Direction: 140°SE
Pressure: 30.02"   Gusts: 35mph
Location:  47.38°N, 53.13°W
Report Text: CYYT 181312Z 14021G30KT 1/4SM R11/5000FT/N R16/5500FT/D -DZ FG VV001 02/02 A3002 RMK FG8 SLP173
Loading
Personal Weather Stations






























Interactive Weather Map New forecast layout! Learn more

10-Day Weather Forecast

Advertisements
Track Severe Weather on mobile